Time;durP1;ratioP1;P1;durP2;ratioP2;P2;SDS_P1;SDS_P2;PMS_P1;PMS_P2;Temp;Humidity;BMP_temperature;BMP_pressure;BME280_temperature;BME280_humidity;BME280_pressure;Samples;Min_cycle;Max_cycle;Signal;HPM_P1;HPM_P2
2021/06/09 00:00:38;;;;;;;16.05;14.30;;;17.40;94.30;;;;;;5075942;28;20043;-87
2021/06/09 00:03:10;;;;;;;16.42;13.38;;;17.30;94.30;;;;;;5072832;28;20028;-87
2021/06/09 00:05:36;;;;;;;16.45;14.60;;;17.40;94.50;;;;;;5075594;28;20032;-86
2021/06/09 00:08:28;;;;;;;16.83;15.23;;;17.30;94.40;;;;;;5075830;28;20021;-88
2021/06/09 00:10:56;;;;;;;16.75;15.05;;;17.30;94.40;;;;;;5037351;28;20020;-86
2021/06/09 00:13:30;;;;;;;17.95;14.85;;;17.20;94.60;;;;;;5074901;28;20020;-86
2021/06/09 00:15:59;;;;;;;16.23;14.52;;;17.20;94.70;;;;;;5060908;28;20119;-86
2021/06/09 00:18:25;;;;;;;16.48;14.88;;;17.20;94.80;;;;;;5076163;28;20024;-84
2021/06/09 00:20:51;;;;;;;16.85;15.20;;;17.20;94.70;;;;;;5078033;28;20024;-87
2021/06/09 00:23:24;;;;;;;16.85;15.25;;;17.20;94.70;;;;;;5074965;28;20104;-84
2021/06/09 00:25:52;;;;;;;16.60;14.77;;;17.20;94.60;;;;;;5074706;28;20424;-82
2021/06/09 00:28:18;;;;;;;15.30;13.80;;;17.30;94.50;;;;;;5076149;28;20094;-83
2021/06/09 00:30:44;;;;;;;20.17;15.40;;;17.30;94.60;;;;;;5074016;28;20028;-85
2021/06/09 00:33:10;;;;;;;16.05;14.43;;;17.20;94.60;;;;;;5069574;28;20126;-86
2021/06/09 00:35:36;;;;;;;14.15;12.75;;;17.20;94.70;;;;;;5073341;28;20028;-86
2021/06/09 00:38:03;;;;;;;15.18;13.73;;;17.30;94.60;;;;;;5074031;28;20028;-85
2021/06/09 00:40:31;;;;;;;14.05;12.68;;;17.30;94.30;;;;;;5065958;28;20048;-84
2021/06/09 00:43:13;;;;;;;14.60;13.18;;;17.30;94.30;;;;;;5072984;28;20024;-85
2021/06/09 00:45:42;;;;;;;14.02;12.63;;;17.30;94.10;;;;;;5067148;28;20028;-84
2021/06/09 00:48:09;;;;;;;13.50;12.18;;;17.30;94.10;;;;;;5072032;28;20024;-83
2021/06/09 00:50:35;;;;;;;17.45;12.70;;;17.30;94.00;;;;;;5077311;28;20124;-84
2021/06/09 00:55:46;;;;;;;13.55;12.25;;;17.30;93.90;;;;;;5087417;28;20039;-84
2021/06/09 00:58:13;;;;;;;13.45;12.07;;;17.20;94.00;;;;;;5088736;28;20028;-85
2021/06/09 01:00:40;;;;;;;12.40;11.10;;;17.20;93.90;;;;;;5078697;28;20036;-84
2021/06/09 01:03:06;;;;;;;13.48;12.15;;;17.20;94.00;;;;;;5063166;28;20550;-84
2021/06/09 01:05:32;;;;;;;14.23;12.27;;;17.20;94.00;;;;;;5075978;28;20051;-83
2021/06/09 01:08:52;;;;;;;16.27;12.27;;;17.20;94.00;;;;;;5075436;28;20081;-85
2021/06/09 01:11:27;;;;;;;13.00;11.63;;;17.20;93.80;;;;;;5065926;28;20381;-87
2021/06/09 01:17:23;;;;;;;13.57;12.18;;;17.20;94.00;;;;;;5029798;28;20039;-84
2021/06/09 01:19:52;;;;;;;13.30;11.95;;;17.10;93.90;;;;;;5072565;28;20020;-84
2021/06/09 01:22:18;;;;;;;16.33;12.70;;;17.20;94.00;;;;;;5072751;28;20029;-85
2021/06/09 01:24:44;;;;;;;14.68;13.07;;;17.30;93.90;;;;;;5072865;28;20025;-87
2021/06/09 01:27:10;;;;;;;15.50;14.02;;;17.30;93.70;;;;;;5072919;28;20077;-84
2021/06/09 01:29:36;;;;;;;14.40;13.00;;;17.20;93.50;;;;;;5072722;28;20041;-85
2021/06/09 01:32:03;;;;;;;16.85;15.05;;;17.20;93.70;;;;;;5072919;28;20024;-84
2021/06/09 01:34:29;;;;;;;15.18;13.55;;;17.10;93.80;;;;;;5062970;28;20023;-86
2021/06/09 01:36:55;;;;;;;16.98;15.18;;;17.00;93.90;;;;;;5072409;28;20020;-83
2021/06/09 01:39:21;;;;;;;16.90;15.10;;;17.10;94.00;;;;;;5072436;28;20016;-83
2021/06/09 01:41:48;;;;;;;15.48;13.88;;;17.10;93.90;;;;;;5072559;28;20485;-83
2021/06/09 01:44:15;;;;;;;17.27;15.65;;;17.10;93.90;;;;;;5072745;28;20017;-85
2021/06/09 01:46:42;;;;;;;18.77;16.83;;;17.10;93.80;;;;;;5066732;28;20558;-85
2021/06/09 01:49:12;;;;;;;16.98;15.35;;;17.10;93.80;;;;;;5072670;28;20378;-84
2021/06/09 01:51:39;;;;;;;18.58;16.77;;;17.10;93.70;;;;;;5063370;28;20025;-82
2021/06/09 01:54:09;;;;;;;18.45;16.63;;;17.10;93.70;;;;;;5074143;28;20037;-84
2021/06/09 01:56:36;;;;;;;16.17;14.55;;;17.00;93.80;;;;;;5065020;28;20056;-86
2021/06/09 01:59:21;;;;;;;18.90;16.98;;;17.00;93.90;;;;;;5073587;28;20039;-85
2021/06/09 02:01:48;;;;;;;19.35;16.90;;;17.00;93.90;;;;;;5077017;28;20028;-86
2021/06/09 02:04:16;;;;;;;18.45;16.05;;;16.90;94.00;;;;;;5080157;28;20024;-84
2021/06/09 02:06:43;;;;;;;19.70;17.63;;;16.90;94.10;;;;;;5076470;28;20028;-84
2021/06/09 02:09:11;;;;;;;17.90;16.05;;;16.90;94.10;;;;;;5076611;28;20033;-84
2021/06/09 02:11:42;;;;;;;18.77;16.55;;;16.90;94.20;;;;;;5076292;28;20025;-83
2021/06/09 02:14:08;;;;;;;19.35;17.35;;;16.90;94.30;;;;;;5076329;28;20499;-83
2021/06/09 02:16:36;;;;;;;18.60;16.65;;;16.90;94.30;;;;;;5076011;28;20473;-84
2021/06/09 02:19:03;;;;;;;19.25;17.27;;;17.00;94.30;;;;;;5076396;28;20028;-86
2021/06/09 02:21:30;;;;;;;19.63;16.08;;;17.00;94.20;;;;;;5076082;28;20036;-84
2021/06/09 02:23:56;;;;;;;17.92;16.20;;;17.00;94.10;;;;;;5075682;28;20088;-86
2021/06/09 02:26:23;;;;;;;18.60;16.70;;;17.00;94.10;;;;;;5076218;28;20052;-84
2021/06/09 02:28:49;;;;;;;;;;;17.10;94.10;;;;;;5075883;28;21631;-85
2021/06/09 02:31:19;;;;;;;21.10;19.00;;;17.10;93.90;;;;;;5075233;28;19905;-83
2021/06/09 02:33:45;;;;;;;21.52;19.33;;;17.10;94.10;;;;;;5073909;28;20541;-85
2021/06/09 02:36:13;;;;;;;22.60;20.30;;;17.10;94.10;;;;;;5075800;28;20112;-85
2021/06/09 02:38:39;;;;;;;19.55;17.65;;;17.10;94.10;;;;;;5075708;28;20021;-85
2021/06/09 02:41:06;;;;;;;20.42;18.15;;;17.10;94.00;;;;;;5075322;28;20061;-88
2021/06/09 02:43:33;;;;;;;20.83;18.83;;;17.10;93.90;;;;;;5076005;28;20099;-85
2021/06/09 02:46:11;;;;;;;20.90;18.85;;;17.10;93.90;;;;;;5072266;28;20081;-86
2021/06/09 02:48:41;;;;;;;22.80;20.40;;;17.10;93.90;;;;;;5076875;28;20424;-84
2021/06/09 02:51:07;;;;;;;23.90;21.33;;;17.10;93.80;;;;;;5076187;28;20024;-85
2021/06/09 02:53:49;;;;;;;24.25;21.67;;;17.10;93.80;;;;;;5084398;28;20197;-87
2021/06/09 02:56:27;;;;;;;24.83;22.23;;;17.20;93.80;;;;;;5085972;28;20393;-84
2021/06/09 02:59:05;;;;;;;25.73;22.30;;;17.20;93.80;;;;;;5083000;28;20093;-84
2021/06/09 03:01:31;;;;;;;24.70;22.08;;;17.30;93.60;;;;;;5077350;28;20056;-87
2021/06/09 03:04:07;;;;;;;22.52;20.13;;;17.30;93.50;;;;;;5082246;28;20025;-83
2021/06/09 03:06:41;;;;;;;23.20;20.90;;;17.20;93.60;;;;;;5092544;28;20001;-84
2021/06/09 03:09:14;;;;;;;21.00;18.67;;;17.20;93.60;;;;;;5090598;28;20335;-87
2021/06/09 03:11:54;;;;;;;18.58;16.67;;;17.20;93.50;;;;;;5074670;28;20051;-85
2021/06/09 03:17:48;;;;;;;21.60;17.17;;;17.10;93.60;;;;;;5064793;28;20037;-86
2021/06/09 03:20:39;;;;;;;18.90;16.58;;;17.00;93.80;;;;;;5074615;28;20491;-84
2021/06/09 03:23:05;;;;;;;16.73;15.00;;;17.10;93.90;;;;;;5064944;28;20040;-87
2021/06/09 03:25:38;;;;;;;21.98;16.60;;;17.00;93.90;;;;;;5076436;28;20021;-84
2021/06/09 03:28:26;;;;;;;21.80;15.43;;;17.10;93.90;;;;;;5075498;28;20062;-87
2021/06/09 03:31:05;;;;;;;16.05;14.35;;;17.00;93.90;;;;;;5076063;28;20028;-87
2021/06/09 03:33:38;;;;;;;15.00;13.45;;;17.00;94.00;;;;;;5071536;28;20016;-86
2021/06/09 03:36:19;;;;;;;15.45;12.63;;;16.90;93.90;;;;;;5076103;28;20446;-87
2021/06/09 03:39:15;;;;;;;17.00;13.25;;;16.90;93.90;;;;;;5085283;28;20078;-88
2021/06/09 03:41:46;;;;;;;14.73;13.23;;;16.90;93.80;;;;;;5062165;28;20040;-88
2021/06/09 03:44:15;;;;;;;20.08;14.73;;;16.90;93.90;;;;;;5075665;28;20020;-89
2021/06/09 03:46:43;;;;;;;14.73;12.88;;;16.90;94.00;;;;;;5062430;28;20403;-87
2021/06/09 03:49:13;;;;;;;14.63;12.75;;;16.90;93.90;;;;;;5075958;28;20111;-87
2021/06/09 03:51:41;;;;;;;15.95;12.90;;;16.90;93.90;;;;;;5077448;28;20017;-88
2021/06/09 03:54:07;;;;;;;13.70;12.30;;;16.90;94.00;;;;;;5073838;28;20428;-88
2021/06/09 03:56:35;;;;;;;13.40;12.10;;;16.90;93.70;;;;;;5075956;28;20441;-88
2021/06/09 03:59:02;;;;;;;;;;;17.00;93.70;;;;;;5077169;28;20027;-89
2021/06/09 04:01:34;;;;;;;17.08;14.50;;;16.90;93.40;;;;;;5078887;28;19946;-87
2021/06/09 04:04:04;;;;;;;18.52;13.35;;;17.00;93.60;;;;;;5077620;28;20032;-87
2021/06/09 04:06:32;;;;;;;16.77;14.70;;;17.00;93.70;;;;;;5076492;28;20027;-90
2021/06/09 04:09:03;;;;;;;16.45;14.02;;;17.00;93.60;;;;;;5078551;28;20452;-85
2021/06/09 04:11:31;;;;;;;17.13;14.68;;;17.00;93.80;;;;;;5073625;28;20456;-86
2021/06/09 04:13:58;;;;;;;14.05;12.60;;;17.00;93.80;;;;;;5065301;28;20066;-88
2021/06/09 04:16:27;;;;;;;16.13;12.50;;;17.00;93.50;;;;;;5077704;28;20060;-88
2021/06/09 04:18:54;;;;;;;15.50;11.80;;;17.10;93.50;;;;;;5071737;28;20031;-86
2021/06/09 04:21:20;;;;;;;14.50;12.73;;;17.20;93.20;;;;;;5074672;28;20055;-85
2021/06/09 04:23:47;;;;;;;13.55;12.07;;;17.20;93.10;;;;;;5076725;28;20115;-86
2021/06/09 04:26:17;;;;;;;13.52;12.10;;;17.20;93.00;;;;;;5065889;28;20082;-85
2021/06/09 04:28:44;;;;;;;12.70;11.40;;;17.30;92.90;;;;;;5074162;28;20059;-84
2021/06/09 04:31:13;;;;;;;17.92;12.48;;;17.40;92.80;;;;;;5073841;28;20111;-89
2021/06/09 04:33:39;;;;;;;13.35;11.95;;;17.40;92.40;;;;;;5074317;28;20032;-87
2021/06/09 04:36:10;;;;;;;16.38;12.50;;;17.30;92.60;;;;;;5074355;28;20094;-86
2021/06/09 04:38:37;;;;;;;14.85;11.30;;;17.40;92.50;;;;;;5072149;28;20027;-85
2021/06/09 04:41:03;;;;;;;17.10;13.02;;;17.60;92.40;;;;;;5060834;28;20039;-85
2021/06/09 04:43:29;;;;;;;13.88;11.63;;;17.70;92.20;;;;;;5062769;28;20025;-86
2021/06/09 04:45:55;;;;;;;14.20;12.68;;;17.80;91.90;;;;;;5076194;28;20184;-84
2021/06/09 04:48:21;;;;;;;14.07;11.45;;;17.80;91.80;;;;;;5064900;28;20020;-89
2021/06/09 04:50:49;;;;;;;13.90;12.40;;;17.80;91.50;;;;;;5073750;28;20074;-87
2021/06/09 04:53:16;;;;;;;13.13;11.73;;;17.80;91.50;;;;;;5074050;28;20024;-86
2021/06/09 04:55:45;;;;;;;14.48;11.73;;;17.80;91.50;;;;;;5069553;28;20024;-86
2021/06/09 04:58:12;;;;;;;13.18;11.88;;;17.80;91.30;;;;;;5069357;28;20107;-84
2021/06/09 05:00:40;;;;;;;12.63;11.38;;;17.80;91.30;;;;;;5067045;28;20036;-87
2021/06/09 05:03:06;;;;;;;13.32;11.32;;;17.80;91.50;;;;;;5074757;28;20435;-89
2021/06/09 05:05:32;;;;;;;17.23;11.73;;;17.90;91.30;;;;;;5075411;28;20024;-87
2021/06/09 05:07:58;;;;;;;15.43;11.32;;;17.90;91.20;;;;;;5073356;28;20040;-86
2021/06/09 05:10:24;;;;;;;15.20;11.10;;;17.80;91.10;;;;;;5073754;28;20021;-85
2021/06/09 05:13:01;;;;;;;14.15;11.70;;;17.80;91.10;;;;;;5076019;28;20024;-86
2021/06/09 05:15:30;;;;;;;15.40;12.35;;;17.90;91.30;;;;;;5072160;28;20028;-87
2021/06/09 05:17:58;;;;;;;15.23;11.77;;;17.90;91.30;;;;;;5090227;28;20024;-88
2021/06/09 05:20:31;;;;;;;15.82;11.15;;;18.00;91.20;;;;;;5079452;28;20386;-87
2021/06/09 05:23:13;;;;;;;16.27;12.52;;;18.00;91.10;;;;;;5074351;28;20027;-87
2021/06/09 05:25:40;;;;;;;12.90;10.27;;;18.10;91.00;;;;;;5074835;28;20025;-87
2021/06/09 05:28:08;;;;;;;12.20;10.48;;;18.20;90.90;;;;;;5076050;28;20415;-90
2021/06/09 05:30:34;;;;;;;;;;;18.10;90.60;;;;;;5074325;28;20020;-88
2021/06/09 05:33:02;;;;;;;13.75;12.07;;;18.10;90.70;;;;;;5073567;28;19912;-87
2021/06/09 05:35:29;;;;;;;;;;;18.00;90.90;;;;;;5076651;28;20048;-87
2021/06/09 05:37:55;;;;;;;;;;;18.00;90.90;;;;;;5080287;28;19911;-87
2021/06/09 05:40:22;;;;;;;18.95;13.02;;;18.00;90.90;;;;;;5077053;28;19950;-85
2021/06/09 05:42:49;;;;;;;18.23;11.98;;;18.00;91.10;;;;;;5077290;28;20028;-85
2021/06/09 05:45:26;;;;;;;14.70;12.05;;;17.90;91.00;;;;;;5077499;28;20168;-88
2021/06/09 05:47:51;;;;;;;15.18;12.10;;;17.90;91.50;;;;;;5071432;28;20079;-86
2021/06/09 05:50:26;;;;;;;20.65;13.07;;;18.00;91.20;;;;;;5072382;28;20425;-86
2021/06/09 05:52:56;;;;;;;21.27;15.02;;;18.10;91.10;;;;;;5077068;28;20043;-85
2021/06/09 05:55:28;;;;;;;19.20;14.13;;;18.10;91.20;;;;;;5075549;28;20043;-85
2021/06/09 05:57:55;;;;;;;15.13;12.85;;;18.10;91.30;;;;;;5075438;28;20191;-85
2021/06/09 06:00:25;;;;;;;14.40;12.90;;;18.20;91.10;;;;;;5076050;28;20025;-86
2021/06/09 06:02:52;;;;;;;13.50;11.65;;;18.30;91.00;;;;;;5076331;28;20103;-84
2021/06/09 06:05:19;;;;;;;15.07;12.68;;;18.30;90.90;;;;;;5076871;28;20111;-85
2021/06/09 06:07:46;;;;;;;14.63;11.88;;;18.40;90.70;;;;;;5077180;28;20067;-88
2021/06/09 06:10:14;;;;;;;16.90;12.23;;;18.40;90.40;;;;;;5078519;28;20025;-86
2021/06/09 06:12:41;;;;;;;13.73;11.63;;;18.50;90.40;;;;;;5066581;28;20269;-88
2021/06/09 06:15:11;;;;;;;16.02;12.50;;;18.50;90.10;;;;;;5076839;28;20024;-85
2021/06/09 06:17:41;;;;;;;16.13;11.93;;;18.60;89.70;;;;;;5067222;28;20031;-84
2021/06/09 06:20:18;;;;;;;21.15;14.23;;;18.60;89.60;;;;;;5073500;28;20051;-84
2021/06/09 06:22:45;;;;;;;13.50;11.82;;;18.60;89.50;;;;;;5074620;28;20106;-83
2021/06/09 06:25:17;;;;;;;15.75;11.88;;;18.60;89.60;;;;;;5064739;28;20028;-84
2021/06/09 06:27:47;;;;;;;15.43;12.82;;;18.60;89.80;;;;;;5075779;28;20054;-84
2021/06/09 06:30:19;;;;;;;14.13;12.43;;;18.80;89.50;;;;;;5082391;28;20045;-84
2021/06/09 06:32:51;;;;;;;21.02;12.43;;;19.00;89.00;;;;;;5077273;28;20023;-84
2021/06/09 06:35:22;;;;;;;14.63;11.85;;;19.20;88.10;;;;;;5081648;28;20048;-85
2021/06/09 06:37:50;;;;;;;15.68;12.20;;;19.30;87.20;;;;;;5074948;28;20100;-85
2021/06/09 06:40:27;;;;;;;17.45;11.68;;;19.40;86.80;;;;;;5075082;28;20371;-85
2021/06/09 06:42:55;;;;;;;13.73;9.95;;;19.40;86.30;;;;;;5075610;28;20108;-87
2021/06/09 06:45:23;;;;;;;11.55;10.35;;;19.30;87.00;;;;;;5076266;28;20025;-86
2021/06/09 06:47:52;;;;;;;14.20;11.82;;;19.20;86.70;;;;;;5078369;28;20017;-89
2021/06/09 06:50:20;;;;;;;14.52;12.43;;;19.10;86.90;;;;;;5075697;28;20018;-89
2021/06/09 06:52:47;;;;;;;15.27;12.70;;;19.20;87.20;;;;;;5055279;28;20139;-86
2021/06/09 06:55:13;;;;;;;16.02;12.85;;;19.20;87.20;;;;;;5077353;28;20351;-80
2021/06/09 06:57:39;;;;;;;17.48;13.38;;;19.20;87.20;;;;;;5069458;28;20040;-84
2021/06/09 07:00:11;;;;;;;17.42;13.38;;;19.20;87.10;;;;;;5079486;28;20034;-87
2021/06/09 07:02:39;;;;;;;25.42;14.57;;;19.20;87.00;;;;;;5078170;28;20035;-86
2021/06/09 07:05:07;;;;;;;18.00;13.27;;;19.20;87.00;;;;;;5077413;28;20040;-84
2021/06/09 07:07:34;;;;;;;14.48;12.98;;;19.00;86.90;;;;;;5078836;28;20074;-86
2021/06/09 07:10:05;;;;;;;25.35;14.20;;;18.80;87.80;;;;;;5076652;28;20107;-84
2021/06/09 07:12:34;;;;;;;19.35;14.35;;;18.80;88.50;;;;;;5075353;28;20474;-86
2021/06/09 07:15:03;;;;;;;20.38;13.15;;;18.90;88.30;;;;;;5073967;28;20028;-88
2021/06/09 07:17:29;;;;;;;15.65;12.60;;;19.00;87.70;;;;;;5075943;28;20074;-86
2021/06/09 07:19:55;;;;;;;18.50;13.95;;;18.90;87.80;;;;;;5074442;28;20108;-85
2021/06/09 07:22:21;;;;;;;17.58;13.85;;;18.90;87.90;;;;;;5075696;28;20495;-85
2021/06/09 07:24:47;;;;;;;19.08;13.50;;;19.00;87.60;;;;;;5078097;28;20083;-84
2021/06/09 07:27:15;;;;;;;19.88;13.32;;;19.10;87.70;;;;;;5080866;28;20043;-85
2021/06/09 07:29:43;;;;;;;13.55;11.95;;;19.10;87.50;;;;;;5091946;28;20083;-84
2021/06/09 07:32:09;;;;;;;17.15;13.80;;;19.20;87.30;;;;;;5079411;28;20035;-87
2021/06/09 07:34:35;;;;;;;16.90;13.55;;;19.10;86.80;;;;;;5078265;28;20016;-86
2021/06/09 07:37:07;;;;;;;16.25;13.65;;;19.00;87.50;;;;;;5075712;28;20508;-87
2021/06/09 07:39:43;;;;;;;14.18;12.70;;;19.00;87.70;;;;;;5075855;28;20024;-86
2021/06/09 07:42:13;;;;;;;15.30;13.25;;;19.20;87.60;;;;;;5076255;28;20135;-84
2021/06/09 07:44:49;;;;;;;18.60;13.18;;;19.10;87.80;;;;;;5076977;28;20020;-85
2021/06/09 07:47:16;;;;;;;13.32;11.68;;;19.10;88.30;;;;;;5075765;28;20028;-84
2021/06/09 07:49:47;;;;;;;;;;;19.10;87.90;;;;;;5075568;28;20062;-86
2021/06/09 07:52:14;;;;;;;14.20;10.55;;;19.10;87.50;;;;;;5074632;28;20360;-87
2021/06/09 07:54:41;;;;;;;15.57;11.30;;;19.10;87.90;;;;;;5074802;28;20048;-84
2021/06/09 07:57:10;;;;;;;13.55;10.98;;;19.00;88.00;;;;;;5074113;28;20509;-86
2021/06/09 07:59:36;;;;;;;12.85;10.73;;;18.90;88.10;;;;;;5075286;28;20469;-88
2021/06/09 08:02:02;;;;;;;13.38;11.65;;;18.90;88.70;;;;;;5075187;28;20040;-85
2021/06/09 08:04:29;;;;;;;16.10;11.40;;;19.00;89.00;;;;;;5061285;28;20029;-85
2021/06/09 08:06:55;;;;;;;17.02;11.48;;;19.20;88.10;;;;;;5073873;28;20048;-86
2021/06/09 08:09:25;;;;;;;23.08;12.35;;;19.60;87.10;;;;;;5064118;28;20029;-88
2021/06/09 08:11:52;;;;;;;16.85;11.82;;;19.80;85.80;;;;;;5075908;28;20514;-89
2021/06/09 08:14:18;;;;;;;;;;;20.20;84.50;;;;;;5075457;28;20025;-87
2021/06/09 08:16:45;;;;;;;13.77;11.68;;;20.50;84.00;;;;;;5075026;28;19950;-86
2021/06/09 08:19:11;;;;;;;13.50;10.95;;;20.80;81.60;;;;;;5074099;28;20027;-86
2021/06/09 08:21:43;;;;;;;12.43;10.13;;;21.10;81.00;;;;;;5075512;28;20029;-90
2021/06/09 08:24:09;;;;;;;12.77;11.13;;;21.20;79.80;;;;;;5074415;28;20092;-85
2021/06/09 08:26:36;;;;;;;16.38;9.77;;;;;;;;;;5076122;28;20405;-85
2021/06/09 08:29:03;;;;;;;16.10;10.55;;;21.80;77.10;;;;;;5078423;28;20122;-87
2021/06/09 08:31:30;;;;;;;12.23;11.02;;;22.00;76.20;;;;;;5078565;28;20028;-84
2021/06/09 08:33:58;;;;;;;11.32;10.13;;;22.20;75.00;;;;;;5075277;28;20548;-86
2021/06/09 08:36:24;;;;;;;12.05;9.38;;;22.70;73.50;;;;;;5068899;28;20066;-85
2021/06/09 08:38:55;;;;;;;11.45;10.05;;;22.90;72.30;;;;;;5078888;28;20020;-88
2021/06/09 08:41:23;;;;;;;12.32;10.32;;;22.70;72.00;;;;;;5075432;28;20032;-88
2021/06/09 08:43:50;;;;;;;12.90;10.35;;;22.60;71.90;;;;;;5074644;28;20044;-85
2021/06/09 08:46:17;;;;;;;13.53;10.47;;;22.60;71.90;;;;;;5076235;28;20028;-87
2021/06/09 08:48:46;;;;;;;11.95;10.05;;;22.30;71.70;;;;;;5074455;28;20477;-85
2021/06/09 08:51:14;;;;;;;10.32;9.00;;;21.90;73.40;;;;;;5061896;28;20587;-88
2021/06/09 08:53:44;;;;;;;14.05;9.55;;;21.50;74.60;;;;;;5074191;28;20145;-85
2021/06/09 08:56:11;;;;;;;13.75;9.60;;;21.30;75.80;;;;;;5060705;28;20428;-85
2021/06/09 08:58:37;;;;;;;15.65;9.35;;;21.10;76.40;;;;;;5074432;28;20032;-86
2021/06/09 09:01:07;;;;;;;11.82;10.65;;;21.00;76.70;;;;;;5073943;28;20115;-89
2021/06/09 09:03:35;;;;;;;10.65;9.57;;;21.00;77.10;;;;;;5074214;28;20051;-85
2021/06/09 09:06:01;;;;;;;12.10;9.70;;;21.00;76.80;;;;;;5073501;28;20033;-86
2021/06/09 09:08:27;;;;;;;12.10;10.20;;;20.90;77.30;;;;;;5071681;28;20116;-85
2021/06/09 09:10:53;;;;;;;12.95;9.88;;;20.80;78.00;;;;;;5072572;28;20785;-86
2021/06/09 09:13:19;;;;;;;19.50;10.38;;;21.10;78.00;;;;;;5074309;28;20051;-87
2021/06/09 09:15:46;;;;;;;13.85;9.18;;;21.60;76.10;;;;;;5076781;28;20032;-87
2021/06/09 09:18:12;;;;;;;9.55;8.65;;;22.00;74.70;;;;;;5078505;28;20017;-86
2021/06/09 09:20:43;;;;;;;13.20;9.15;;;22.30;73.70;;;;;;5075074;28;20442;-86
2021/06/09 09:23:28;;;;;;;13.15;9.15;;;22.70;72.60;;;;;;5073652;28;20028;-86
2021/06/09 09:25:56;;;;;;;10.73;8.70;;;22.90;71.60;;;;;;5067022;28;20039;-86
2021/06/09 09:28:31;;;;;;;12.18;8.38;;;22.90;70.60;;;;;;5072915;28;20151;-86
2021/06/09 09:31:26;;;;;;;11.68;8.57;;;23.10;70.70;;;;;;5073146;28;20017;-84
2021/06/09 09:33:52;;;;;;;13.95;8.63;;;23.60;69.20;;;;;;5073276;28;20040;-84
2021/06/09 09:36:30;;;;;;;10.77;8.32;;;23.80;67.50;;;;;;5076419;28;20040;-86
2021/06/09 09:38:58;;;;;;;12.13;8.23;;;23.70;67.60;;;;;;5078244;28;20025;-85
2021/06/09 09:41:32;;;;;;;10.32;8.27;;;23.50;67.40;;;;;;5085149;28;20029;-86
2021/06/09 09:44:03;;;;;;;8.18;7.40;;;23.20;67.50;;;;;;5090440;28;20020;-87
2021/06/09 09:46:51;;;;;;;8.45;7.55;;;23.00;69.40;;;;;;5080075;28;20021;-87
2021/06/09 09:49:18;;;;;;;11.45;9.07;;;23.00;68.30;;;;;;5072997;28;20099;-87
2021/06/09 09:51:56;;;;;;;12.10;9.02;;;23.00;68.00;;;;;;5073759;28;20005;-86
2021/06/09 09:54:43;;;;;;;8.18;6.63;;;23.20;66.80;;;;;;5072248;28;20123;-87
2021/06/09 09:57:14;;;;;;;7.63;6.75;;;23.40;67.20;;;;;;5071624;28;20385;-84
2021/06/09 09:59:52;;;;;;;9.40;7.05;;;23.70;66.10;;;;;;5074635;28;20027;-85
2021/06/09 10:02:18;;;;;;;8.98;7.65;;;23.90;65.80;;;;;;5074865;28;20055;-88
2021/06/09 10:04:52;;;;;;;8.38;6.75;;;24.00;65.20;;;;;;5061641;28;20028;-86
2021/06/09 10:07:18;;;;;;;9.45;7.18;;;23.90;65.70;;;;;;5073620;28;20064;-85
2021/06/09 10:09:46;;;;;;;9.95;6.28;;;23.70;66.30;;;;;;5073642;28;20028;-85
2021/06/09 10:12:14;;;;;;;7.13;6.40;;;24.30;66.40;;;;;;5073608;28;20203;-87
2021/06/09 10:14:49;;;;;;;10.40;6.30;;;24.60;64.20;;;;;;5072454;28;20024;-87
2021/06/09 10:17:22;;;;;;;7.18;6.47;;;24.80;62.40;;;;;;5073331;28;20020;-87
2021/06/09 10:19:59;;;;;;;9.02;6.47;;;24.60;62.50;;;;;;5072504;28;20108;-85
2021/06/09 10:22:32;;;;;;;7.37;6.53;;;24.10;63.20;;;;;;5075418;28;20037;-86
2021/06/09 10:25:06;;;;;;;9.48;6.22;;;23.70;64.30;;;;;;5075794;28;20257;-87
2021/06/09 10:27:51;;;;;;;6.85;6.15;;;23.30;65.60;;;;;;5077321;28;20070;-87
2021/06/09 10:30:20;;;;;;;8.57;6.93;;;23.10;67.00;;;;;;5078858;28;20053;-87
2021/06/09 10:33:04;;;;;;;9.77;5.95;;;23.10;67.60;;;;;;5078253;28;20021;-87
2021/06/09 10:35:34;;;;;;;9.88;5.53;;;23.30;67.40;;;;;;5076469;28;20731;-86
2021/06/09 10:38:01;;;;;;;12.10;6.78;;;23.60;66.50;;;;;;5075241;28;20032;-86
2021/06/09 10:40:34;;;;;;;10.55;6.00;;;23.70;64.80;;;;;;5076338;28;20071;-86
2021/06/09 10:43:05;;;;;;;8.07;6.63;;;23.50;65.10;;;;;;5076493;28;20032;-85
2021/06/09 10:45:35;;;;;;;10.63;5.93;;;23.40;65.90;;;;;;5075096;28;20389;-85
2021/06/09 10:48:03;;;;;;;10.32;7.13;;;23.50;65.90;;;;;;5076715;28;20478;-85
2021/06/09 10:50:29;;;;;;;6.43;5.32;;;23.30;66.10;;;;;;5076703;28;20021;-88
2021/06/09 10:52:56;;;;;;;9.00;6.10;;;23.00;66.50;;;;;;5076387;28;20027;-84
2021/06/09 10:55:22;;;;;;;10.38;6.20;;;22.80;67.70;;;;;;5075833;28;20028;-86
2021/06/09 10:57:51;;;;;;;10.03;6.13;;;22.60;68.90;;;;;;5076150;28;20437;-86
2021/06/09 11:00:18;;;;;;;10.02;5.95;;;22.30;69.00;;;;;;5074532;28;20473;-87
2021/06/09 11:02:46;;;;;;;8.38;7.25;;;22.10;70.00;;;;;;5076485;28;20024;-87
2021/06/09 11:05:13;;;;;;;9.80;6.05;;;21.90;71.00;;;;;;5076780;28;20029;-88
2021/06/09 11:07:41;;;;;;;7.72;6.30;;;21.70;71.50;;;;;;5076135;28;20081;-89
2021/06/09 11:10:16;;;;;;;7.15;6.45;;;21.60;72.20;;;;;;5075826;28;20024;-85
2021/06/09 11:12:49;;;;;;;13.70;7.05;;;21.60;72.60;;;;;;5075903;28;20099;-85
2021/06/09 11:15:27;;;;;;;8.90;6.25;;;21.50;73.10;;;;;;5075844;28;20020;-86
2021/06/09 11:17:57;;;;;;;9.27;6.50;;;21.40;73.40;;;;;;5075149;28;20112;-86
2021/06/09 11:20:36;;;;;;;8.18;6.82;;;21.30;75.30;;;;;;5074959;28;20052;-85
2021/06/09 11:23:12;;;;;;;10.25;6.63;;;21.10;75.50;;;;;;5075452;28;20064;-85
2021/06/09 11:25:43;;;;;;;11.77;7.45;;;20.80;76.10;;;;;;5061717;28;20017;-86
2021/06/09 11:28:32;;;;;;;9.50;7.47;;;20.80;77.10;;;;;;5075014;28;20033;-86
2021/06/09 11:31:09;;;;;;;9.82;6.93;;;20.60;78.10;;;;;;5054874;28;20063;-86
2021/06/09 11:33:59;;;;;;;9.75;7.75;;;20.30;79.50;;;;;;5074718;28;20359;-87
2021/06/09 11:36:36;;;;;;;11.88;7.63;;;19.90;82.60;;;;;;5075960;28;20036;-87
2021/06/09 11:39:11;;;;;;;14.38;9.05;;;19.50;83.90;;;;;;5075569;28;20020;-85
2021/06/09 11:41:42;;;;;;;10.63;7.50;;;19.00;86.60;;;;;;5075979;28;20385;-87
2021/06/09 11:44:39;;;;;;;10.30;7.65;;;18.80;88.50;;;;;;5061020;28;20035;-86
2021/06/09 11:47:17;;;;;;;9.27;8.02;;;18.60;89.30;;;;;;5076648;28;20025;-87
2021/06/09 11:49:43;;;;;;;17.30;10.95;;;18.60;90.40;;;;;;5076849;28;20150;-86
2021/06/09 11:52:09;;;;;;;17.10;9.45;;;18.50;90.90;;;;;;5077494;28;20123;-85
2021/06/09 11:54:36;;;;;;;16.48;10.45;;;18.50;91.50;;;;;;5084661;28;20036;-86
2021/06/09 11:57:12;;;;;;;;;;;18.50;91.20;;;;;;5095708;28;20028;-87
2021/06/09 11:59:40;;;;;;;11.55;8.05;;;18.50;90.60;;;;;;5092692;28;19919;-88
2021/06/09 12:02:18;;;;;;;13.23;10.02;;;18.30;91.00;;;;;;5068909;28;20055;-84
2021/06/09 12:04:55;;;;;;;12.27;8.38;;;18.40;90.70;;;;;;5078178;28;20050;-86
2021/06/09 12:07:24;;;;;;;9.40;6.88;;;18.50;90.20;;;;;;5074645;28;20037;-86
2021/06/09 12:09:51;;;;;;;13.75;8.75;;;18.70;90.00;;;;;;5077223;28;20028;-85
2021/06/09 12:12:21;;;;;;;12.05;8.40;;;18.90;89.10;;;;;;5081048;28;20025;-85
2021/06/09 12:14:51;;;;;;;12.13;7.88;;;19.10;89.00;;;;;;5076614;28;20093;-86
2021/06/09 12:17:29;;;;;;;15.88;8.77;;;19.30;87.60;;;;;;5075012;28;20072;-87
2021/06/09 12:20:03;;;;;;;7.97;6.78;;;19.40;86.90;;;;;;5074469;28;20049;-87
2021/06/09 12:22:32;;;;;;;14.02;8.50;;;19.40;85.90;;;;;;5074811;28;20048;-88
2021/06/09 12:25:10;;;;;;;6.32;5.50;;;19.30;85.00;;;;;;5074282;28;20017;-86
2021/06/09 12:27:39;;;;;;;13.93;7.47;;;19.30;84.50;;;;;;5075075;28;20036;-88
2021/06/09 12:30:11;;;;;;;10.38;7.00;;;19.30;85.00;;;;;;5073041;28;20554;-85
2021/06/09 12:32:38;;;;;;;9.88;7.45;;;19.20;85.70;;;;;;5074616;28;20028;-87
2021/06/09 12:35:05;;;;;;;11.38;7.85;;;19.30;85.40;;;;;;5074151;28;20044;-85
2021/06/09 12:37:34;;;;;;;18.38;8.00;;;19.40;85.00;;;;;;5074285;28;20033;-86
2021/06/09 12:40:09;;;;;;;12.43;7.32;;;19.40;84.60;;;;;;5068700;28;20431;-86
2021/06/09 12:42:38;;;;;;;11.25;7.00;;;19.30;84.50;;;;;;5073790;28;20385;-86
2021/06/09 12:45:07;;;;;;;8.63;6.63;;;19.40;83.80;;;;;;5073997;28;20017;-85
2021/06/09 12:47:37;;;;;;;9.85;6.88;;;19.40;83.80;;;;;;5073665;28;20020;-87
2021/06/09 12:50:17;;;;;;;8.35;6.40;;;19.40;83.10;;;;;;5073671;28;20025;-83
2021/06/09 12:52:46;;;;;;;7.55;6.22;;;19.40;82.40;;;;;;5075521;28;20071;-86
2021/06/09 12:55:18;;;;;;;8.98;6.13;;;19.30;82.40;;;;;;5077625;28;20119;-88
2021/06/09 12:57:45;;;;;;;11.10;6.63;;;19.20;82.70;;;;;;5075107;28;20546;-86